createdAt,value
2019-04-03T00:00:00.360Z,5.33
2019-04-03T00:01:15.309Z,5.78
2019-04-03T00:02:29.365Z,5.03
2019-04-03T00:03:42.610Z,5.53
2019-04-03T00:04:55.882Z,5.28
2019-04-03T00:06:09.125Z,4.92
2019-04-03T00:07:22.359Z,4.22
2019-04-03T00:08:36.670Z,5.37
2019-04-03T00:09:50.353Z,5.45
2019-04-03T00:11:03.601Z,5.45
2019-04-03T00:12:16.842Z,5.25
2019-04-03T00:13:30.181Z,5.45
2019-04-03T00:14:43.433Z,5.17
2019-04-03T00:15:56.667Z,6.05
2019-04-03T00:17:09.907Z,5.15
2019-04-03T00:18:23.151Z,5.95
2019-04-03T00:19:36.422Z,5.90
2019-04-03T00:20:50.677Z,6.50
2019-04-03T00:22:04.117Z,5.95
2019-04-03T00:23:17.581Z,5.08
2019-04-03T00:24:30.850Z,6.25
2019-04-03T00:25:44.157Z,6.00
2019-04-03T00:26:57.403Z,5.85
2019-04-03T00:28:10.841Z,5.33
2019-04-03T00:29:24.131Z,6.05
2019-04-03T00:30:37.387Z,6.25
2019-04-03T00:31:53.056Z,6.67
2019-04-03T00:33:05.610Z,5.95
2019-04-03T00:34:19.026Z,7.10
2019-04-03T00:35:32.447Z,6.50
2019-04-03T00:36:46.080Z,6.78
2019-04-03T00:37:59.430Z,6.12
2019-04-03T00:39:12.681Z,5.90
2019-04-03T00:40:25.949Z,6.85
2019-04-03T00:41:41.678Z,7.17
2019-04-03T00:42:54.918Z,6.15
2019-04-03T00:44:08.154Z,6.25
2019-04-03T00:45:24.018Z,6.58
2019-04-03T00:46:36.424Z,6.87
2019-04-03T00:47:51.687Z,6.58
2019-04-03T00:49:04.980Z,6.62
2019-04-03T00:50:18.290Z,6.95
2019-04-03T00:51:32.563Z,6.55
2019-04-03T00:52:45.904Z,6.47
2019-04-03T00:53:59.711Z,6.95
2019-04-03T00:55:13.038Z,6.85
2019-04-03T00:56:26.724Z,6.17
2019-04-03T00:57:40.262Z,6.95
2019-04-03T00:58:55.009Z,6.97
2019-04-03T01:00:13.605Z,6.12
2019-04-03T01:01:27.018Z,6.97
2019-04-03T01:02:40.281Z,7.30
2019-04-03T01:03:53.604Z,6.83
2019-04-03T01:05:06.900Z,7.45
2019-04-03T01:06:20.150Z,7.37
2019-04-03T01:07:33.399Z,7.55
2019-04-03T01:08:46.677Z,7.25
2019-04-03T01:10:00.028Z,7.15
2019-04-03T01:11:13.438Z,6.53
2019-04-03T01:12:26.800Z,7.05
2019-04-03T01:13:41.376Z,6.30
2019-04-03T01:14:54.723Z,7.08
2019-04-03T01:16:08.097Z,7.40
2019-04-03T01:17:21.328Z,6.97
2019-04-03T01:18:35.392Z,6.95
2019-04-03T01:19:48.837Z,6.80
2019-04-03T01:21:02.102Z,6.62
2019-04-03T01:22:15.333Z,6.70
2019-04-03T01:23:28.589Z,7.75
2019-04-03T01:24:41.926Z,6.85
2019-04-03T01:25:55.171Z,6.75
2019-04-03T01:27:11.169Z,7.00
2019-04-03T01:28:23.491Z,6.92
2019-04-03T01:29:36.844Z,6.25
2019-04-03T01:30:50.101Z,7.05
2019-04-03T01:32:03.323Z,6.53
2019-04-03T01:33:17.449Z,6.10
2019-04-03T01:34:30.852Z,6.40
2019-04-03T01:35:44.188Z,6.55
2019-04-03T01:36:57.460Z,6.87
2019-04-03T01:38:11.039Z,6.42
2019-04-03T01:39:24.290Z,6.97
2019-04-03T01:40:37.565Z,6.80
2019-04-03T01:41:51.452Z,6.55
2019-04-03T01:43:05.373Z,6.50
2019-04-03T01:44:18.756Z,6.58
2019-04-03T01:45:32.351Z,6.50
2019-04-03T01:46:46.057Z,6.47
2019-04-03T01:47:59.385Z,6.30
2019-04-03T01:49:12.968Z,5.72
2019-04-03T01:50:26.808Z,6.60
2019-04-03T01:51:41.694Z,6.75
2019-04-03T01:52:55.081Z,7.12
2019-04-03T01:54:08.593Z,6.25
2019-04-03T01:55:22.077Z,7.12
2019-04-03T01:56:36.282Z,6.28
2019-04-03T01:57:49.849Z,7.03
2019-04-03T01:59:03.145Z,6.95
2019-04-03T02:00:16.413Z,7.00
2019-04-03T02:01:29.774Z,7.28
2019-04-03T02:02:43.087Z,6.47
2019-04-03T02:03:56.347Z,6.53
2019-04-03T02:05:12.135Z,6.92
2019-04-03T02:06:24.665Z,6.87
2019-04-03T02:07:37.986Z,6.92
2019-04-03T02:08:51.304Z,7.05
2019-04-03T02:10:05.641Z,7.05
2019-04-03T02:11:19.212Z,7.30
2019-04-03T02:12:32.571Z,7.45
2019-04-03T02:13:45.898Z,7.70
2019-04-03T02:14:59.242Z,7.33
2019-04-03T02:16:12.661Z,7.00
2019-04-03T02:17:25.921Z,6.60
2019-04-03T02:18:39.252Z,6.62
2019-04-03T02:19:52.712Z,6.12
2019-04-03T02:21:06.058Z,6.72
2019-04-03T02:22:19.378Z,6.45
2019-04-03T02:23:32.628Z,7.33
2019-04-03T02:24:46.011Z,6.70
2019-04-03T02:25:59.283Z,6.60
2019-04-03T02:27:14.013Z,6.40
2019-04-03T02:28:27.271Z,5.75
2019-04-03T02:29:40.510Z,6.30
2019-04-03T02:30:53.925Z,6.67
2019-04-03T02:32:07.218Z,7.28
2019-04-03T02:33:20.512Z,6.20
2019-04-03T02:34:35.491Z,6.25
2019-04-03T02:35:48.867Z,6.40
2019-04-03T02:37:02.280Z,6.62
2019-04-03T02:38:15.904Z,7.22
2019-04-03T02:39:29.290Z,6.17
2019-04-03T02:40:42.805Z,6.78
2019-04-03T02:41:56.232Z,6.65
2019-04-03T02:43:13.479Z,6.42
2019-04-03T02:44:24.843Z,7.35
2019-04-03T02:45:38.462Z,6.25
2019-04-03T02:46:51.738Z,6.83
2019-04-03T02:48:06.231Z,6.85
2019-04-03T02:49:20.017Z,6.65
2019-04-03T02:50:33.260Z,7.03
2019-04-03T02:51:46.571Z,6.78
2019-04-03T02:52:59.835Z,7.15
2019-04-03T02:54:27.313Z,6.95
2019-04-03T02:55:41.272Z,7.60
2019-04-03T02:56:55.631Z,7.45
2019-04-03T02:58:08.982Z,7.33
2019-04-03T02:59:25.247Z,6.78
2019-04-03T03:00:37.281Z,6.90
2019-04-03T03:01:50.557Z,6.72
2019-04-03T03:03:03.787Z,7.15
2019-04-03T03:04:20.724Z,6.97
2019-04-03T03:05:32.133Z,7.12
2019-04-03T03:06:45.402Z,7.25
2019-04-03T03:07:58.755Z,7.20
2019-04-03T03:09:13.530Z,8.23
2019-04-03T03:10:30.600Z,6.85
2019-04-03T03:11:41.999Z,7.70
2019-04-03T03:12:59.722Z,7.80
2019-04-03T03:14:10.762Z,7.17
2019-04-03T03:15:24.009Z,7.62
2019-04-03T03:16:37.284Z,7.92
2019-04-03T03:17:54.428Z,7.20
2019-04-03T03:19:05.578Z,7.30
2019-04-03T03:20:22.199Z,7.62
2019-04-03T03:21:35.618Z,7.20
2019-04-03T03:22:50.523Z,7.62
2019-04-03T03:24:04.337Z,6.95
2019-04-03T03:25:17.976Z,7.10
2019-04-03T03:26:31.286Z,7.03
2019-04-03T03:27:44.637Z,7.58
2019-04-03T03:29:13.882Z,7.70
2019-04-03T03:30:33.837Z,7.35
2019-04-03T03:31:57.624Z,7.65
2019-04-03T03:32:43.152Z,7.90
2019-04-03T03:34:01.663Z,7.30
2019-04-03T03:35:15.077Z,7.65
2019-04-03T03:36:27.538Z,7.50
2019-04-03T03:37:41.753Z,7.87
2019-04-03T03:38:55.369Z,8.23
2019-04-03T03:40:08.625Z,8.18
2019-04-03T03:41:23.703Z,7.80
2019-04-03T03:42:37.037Z,8.38
2019-04-03T03:43:50.926Z,7.60
2019-04-03T03:45:05.850Z,7.47
2019-04-03T03:46:19.191Z,7.60
2019-04-03T03:47:35.205Z,7.72
2019-04-03T03:48:48.000Z,7.22
2019-04-03T03:50:01.578Z,8.20
2019-04-03T03:51:14.844Z,7.60
2019-04-03T03:52:28.097Z,9.03
2019-04-03T03:53:44.553Z,8.18
2019-04-03T03:54:56.288Z,7.85
2019-04-03T03:56:09.658Z,8.10
2019-04-03T03:57:23.211Z,7.97
2019-04-03T03:58:36.843Z,7.97
2019-04-03T03:59:51.944Z,7.28
2019-04-03T04:01:05.249Z,7.42
2019-04-03T04:02:18.592Z,7.08
2019-04-03T04:03:31.851Z,7.90
2019-04-03T04:04:48.039Z,7.72
2019-04-03T04:06:00.143Z,7.83
2019-04-03T04:07:13.412Z,7.53
2019-04-03T04:08:26.664Z,8.05
2019-04-03T04:09:39.965Z,7.72
2019-04-03T04:10:53.497Z,7.72
2019-04-03T04:12:08.699Z,8.35
2019-04-03T04:13:22.337Z,7.97
2019-04-03T04:14:36.207Z,7.45
2019-04-03T04:15:49.692Z,8.25
2019-04-03T04:17:03.066Z,7.78
2019-04-03T04:18:16.409Z,7.80
2019-04-03T04:19:31.075Z,7.55
2019-04-03T04:20:45.014Z,8.03
2019-04-03T04:21:59.659Z,8.08
2019-04-03T04:23:12.988Z,8.28
2019-04-03T04:24:28.097Z,8.45
2019-04-03T04:25:43.640Z,7.62
2019-04-03T04:26:56.558Z,7.37
2019-04-03T04:28:10.383Z,6.78
2019-04-03T04:29:24.223Z,8.50
2019-04-03T04:30:37.568Z,8.40
2019-04-03T04:31:50.838Z,8.08
2019-04-03T04:33:04.359Z,7.70
2019-04-03T04:34:18.914Z,7.50
2019-04-03T04:35:32.889Z,7.67
2019-04-03T04:36:46.154Z,7.90
2019-04-03T04:37:59.622Z,8.00
2019-04-03T04:39:13.040Z,8.15
2019-04-03T04:40:26.321Z,7.85
2019-04-03T04:41:39.617Z,7.17
2019-04-03T04:42:52.861Z,6.78
2019-04-03T04:44:06.150Z,8.10
2019-04-03T04:45:19.506Z,7.20
2019-04-03T04:46:32.759Z,8.20
2019-04-03T04:47:46.524Z,8.40
2019-04-03T04:48:59.842Z,9.10
2019-04-03T04:50:14.760Z,8.00
2019-04-03T04:51:28.022Z,7.70
2019-04-03T04:52:41.271Z,7.72
2019-04-03T04:53:54.562Z,8.10
2019-04-03T04:55:08.255Z,8.28
2019-04-03T04:56:21.491Z,8.03
2019-04-03T04:57:34.757Z,7.87
2019-04-03T04:58:48.228Z,7.78
2019-04-03T05:00:01.536Z,8.43
2019-04-03T05:01:17.116Z,8.30
2019-04-03T05:02:29.824Z,8.35
2019-04-03T05:03:43.067Z,8.13
2019-04-03T05:04:56.677Z,7.83
2019-04-03T05:06:10.078Z,9.18
2019-04-03T05:07:23.311Z,9.28
2019-04-03T05:08:36.710Z,7.42
2019-04-03T05:09:50.119Z,8.80
2019-04-03T05:11:03.363Z,9.23
2019-04-03T05:12:16.656Z,8.90
2019-04-03T05:13:30.111Z,8.78
2019-04-03T05:14:43.458Z,8.40
2019-04-03T05:15:57.358Z,9.28
2019-04-03T05:17:10.602Z,9.45
2019-04-03T05:18:23.902Z,8.73
2019-04-03T05:19:37.209Z,8.53
2019-04-03T05:20:50.828Z,8.65
2019-04-03T05:22:04.769Z,8.23
2019-04-03T05:23:18.284Z,8.78
2019-04-03T05:24:31.945Z,8.63
2019-04-03T05:25:45.465Z,8.73
2019-04-03T05:26:58.858Z,8.63
2019-04-03T05:28:12.112Z,9.48
2019-04-03T05:29:25.353Z,9.50
2019-04-03T05:30:38.737Z,8.28
2019-04-03T05:31:52.008Z,9.15
2019-04-03T05:33:05.320Z,8.28
2019-04-03T05:34:18.805Z,8.83
2019-04-03T05:35:32.224Z,8.98
2019-04-03T05:36:46.838Z,8.10
2019-04-03T05:38:00.491Z,8.88
2019-04-03T05:39:14.712Z,9.25
2019-04-03T05:40:28.008Z,9.10
2019-04-03T05:41:41.284Z,8.98
2019-04-03T05:42:54.509Z,8.48
2019-04-03T05:44:07.798Z,10.32
2019-04-03T05:45:21.257Z,8.53
2019-04-03T05:46:36.551Z,8.90
2019-04-03T05:47:49.899Z,8.43
2019-04-03T05:49:03.440Z,8.60
2019-04-03T05:50:16.889Z,8.25
2019-04-03T05:51:30.336Z,8.98
2019-04-03T05:52:43.632Z,9.08
2019-04-03T05:53:56.948Z,8.55
2019-04-03T05:55:10.219Z,8.75
2019-04-03T05:56:23.785Z,8.45
2019-04-03T05:57:37.082Z,9.83
2019-04-03T05:58:55.954Z,9.98
2019-04-03T06:00:07.558Z,9.85
2019-04-03T06:01:21.182Z,9.55
2019-04-03T06:02:34.448Z,9.08
2019-04-03T06:03:47.697Z,8.90
2019-04-03T06:05:00.957Z,8.93
2019-04-03T06:06:15.380Z,9.10
2019-04-03T06:07:28.973Z,9.30
2019-04-03T06:08:42.258Z,9.30
2019-04-03T06:09:58.490Z,9.43
2019-04-03T06:11:10.637Z,8.68
2019-04-03T06:12:24.259Z,9.40
2019-04-03T06:13:37.558Z,9.20
2019-04-03T06:14:51.008Z,9.95
2019-04-03T06:16:04.447Z,8.58
2019-04-03T06:17:17.820Z,9.18
2019-04-03T06:18:32.377Z,9.25
2019-04-03T06:19:45.908Z,9.43
2019-04-03T06:20:59.310Z,8.60
2019-04-03T06:22:12.659Z,8.55
2019-04-03T06:23:26.354Z,10.20
2019-04-03T06:24:39.658Z,9.13
2019-04-03T06:25:52.950Z,9.65
2019-04-03T06:27:09.168Z,11.43
2019-04-03T06:28:21.570Z,10.80
2019-04-03T06:29:34.865Z,10.50
2019-04-03T06:30:48.437Z,9.48
2019-04-03T06:32:01.808Z,10.95
2019-04-03T06:33:15.171Z,9.68
2019-04-03T06:34:28.495Z,10.55
2019-04-03T06:35:44.540Z,10.00
2019-04-03T06:36:57.065Z,9.98
2019-04-03T06:38:10.392Z,9.50
2019-04-03T06:39:24.265Z,9.60
2019-04-03T06:40:37.720Z,9.65
2019-04-03T06:41:51.152Z,10.18
2019-04-03T06:43:11.334Z,9.85
2019-04-03T06:44:24.577Z,10.20
2019-04-03T06:45:37.840Z,9.83
2019-04-03T06:46:53.898Z,9.75
2019-04-03T06:48:06.298Z,9.38
2019-04-03T06:49:21.945Z,10.88
2019-04-03T06:50:37.647Z,9.80
2019-04-03T06:51:50.986Z,9.78
2019-04-03T06:53:07.443Z,9.70
2019-04-03T06:54:22.649Z,9.85
2019-04-03T06:55:36.509Z,10.05
2019-04-03T06:56:52.140Z,10.60
2019-04-03T06:58:04.950Z,9.33
2019-04-03T06:59:18.975Z,9.78
2019-04-03T07:00:34.257Z,9.13
2019-04-03T07:01:47.491Z,9.53
2019-04-03T07:03:02.919Z,9.38
2019-04-03T07:04:15.780Z,10.82
2019-04-03T07:05:29.033Z,9.60
2019-04-03T07:06:44.315Z,10.13
2019-04-03T07:07:57.857Z,11.28
2019-04-03T07:09:22.766Z,10.13
2019-04-03T07:10:28.130Z,10.68
2019-04-03T07:11:43.268Z,10.05
2019-04-03T07:12:56.423Z,10.58
2019-04-03T07:14:09.662Z,11.43
2019-04-03T07:15:24.602Z,10.13
2019-04-03T07:16:38.926Z,10.38
2019-04-03T07:17:52.417Z,10.23
2019-04-03T07:19:07.805Z,11.22
2019-04-03T07:20:21.238Z,10.70
2019-04-03T07:21:36.052Z,10.40
2019-04-03T07:22:49.572Z,10.10
2019-04-03T07:24:03.637Z,10.48
2019-04-03T07:25:16.959Z,9.98
2019-04-03T07:26:30.240Z,10.45
2019-04-03T07:27:44.218Z,9.70
2019-04-03T07:28:58.868Z,10.10
2019-04-03T07:30:12.752Z,11.00
2019-04-03T07:31:26.032Z,10.43
2019-04-03T07:32:39.277Z,10.05
2019-04-03T07:33:52.648Z,12.20
2019-04-03T07:35:09.345Z,10.15
2019-04-03T07:36:21.245Z,10.48
2019-04-03T07:37:34.821Z,12.43
2019-04-03T07:38:49.419Z,11.63
2019-04-03T07:40:03.314Z,10.28
2019-04-03T07:41:16.670Z,10.25
2019-04-03T07:42:32.123Z,9.98
2019-04-03T07:43:45.414Z,9.98
2019-04-03T07:45:01.413Z,10.28
2019-04-03T07:46:15.702Z,10.05
2019-04-03T07:47:29.949Z,10.50
2019-04-03T07:48:43.507Z,10.80
2019-04-03T07:49:56.880Z,10.78
2019-04-03T07:51:12.738Z,10.28
2019-04-03T07:52:25.117Z,10.85
2019-04-03T07:53:38.494Z,10.75
2019-04-03T07:54:52.900Z,10.00
2019-04-03T07:56:06.557Z,11.30
2019-04-03T07:57:20.173Z,9.80
2019-04-03T07:58:36.644Z,10.08
2019-04-03T07:59:49.973Z,10.00
2019-04-03T08:01:03.233Z,10.80
2019-04-03T08:02:16.505Z,10.58
2019-04-03T08:03:30.290Z,9.78
2019-04-03T08:04:43.714Z,9.18
2019-04-03T08:05:57.258Z,10.32
2019-04-03T08:07:10.663Z,10.08
2019-04-03T08:08:23.983Z,10.40
2019-04-03T08:09:37.843Z,9.98
2019-04-03T08:10:51.146Z,9.63
2019-04-03T08:12:04.582Z,9.40
2019-04-03T08:13:17.968Z,10.55
2019-04-03T08:14:31.218Z,9.08
2019-04-03T08:15:45.434Z,9.33
2019-04-03T08:16:59.846Z,10.95
2019-04-03T08:18:13.086Z,9.10
2019-04-03T08:19:26.534Z,11.20
2019-04-03T08:20:39.840Z,11.97
2019-04-03T08:21:53.114Z,10.70
2019-04-03T08:23:06.827Z,10.28
2019-04-03T08:24:20.104Z,10.45
2019-04-03T08:25:33.483Z,10.65
2019-04-03T08:26:48.947Z,10.78
2019-04-03T08:28:04.119Z,11.12
2019-04-03T08:29:17.683Z,10.45
2019-04-03T08:30:30.939Z,10.60
2019-04-03T08:31:48.367Z,10.18
2019-04-03T08:33:00.464Z,10.93
2019-04-03T08:34:18.097Z,10.30
2019-04-03T08:35:29.781Z,9.50
2019-04-03T08:36:43.159Z,11.55
2019-04-03T08:37:56.431Z,10.88
2019-04-03T08:39:09.780Z,10.28
2019-04-03T08:40:23.110Z,13.58
2019-04-03T08:41:37.787Z,11.18
2019-04-03T08:42:51.313Z,11.65
2019-04-03T08:44:08.222Z,11.03
2019-04-03T08:45:21.638Z,10.95
2019-04-03T08:46:35.328Z,10.25
2019-04-03T08:47:48.974Z,11.25
2019-04-03T08:49:02.826Z,11.63
2019-04-03T08:50:16.112Z,11.10
2019-04-03T08:51:29.443Z,10.28
2019-04-03T08:52:43.760Z,10.32
2019-04-03T08:53:57.244Z,10.55
2019-04-03T08:55:12.943Z,10.88
2019-04-03T08:56:25.744Z,10.45
2019-04-03T08:57:39.163Z,11.83
2019-04-03T08:58:54.863Z,11.33
2019-04-03T09:00:09.098Z,10.98
2019-04-03T09:01:22.372Z,11.22
2019-04-03T09:02:35.726Z,10.58
2019-04-03T09:03:49.337Z,10.85
2019-04-03T09:05:04.013Z,10.15
2019-04-03T09:06:17.423Z,11.40
2019-04-03T09:07:32.987Z,10.78
2019-04-03T09:08:48.035Z,10.30
2019-04-03T09:10:01.554Z,10.98
2019-04-03T09:11:15.296Z,11.15
2019-04-03T09:12:28.670Z,12.10
2019-04-03T09:13:42.101Z,10.98
2019-04-03T09:14:57.067Z,11.30
2019-04-03T09:16:11.009Z,11.55
2019-04-03T09:17:24.340Z,11.55
2019-04-03T09:18:38.270Z,12.23
2019-04-03T09:19:52.092Z,11.10
2019-04-03T09:21:05.522Z,10.85
2019-04-03T09:22:20.835Z,11.95
2019-04-03T09:23:34.079Z,10.78
2019-04-03T09:24:47.798Z,11.40
2019-04-03T09:26:03.062Z,11.15
2019-04-03T09:27:16.616Z,11.18
2019-04-03T09:28:36.013Z,11.68
2019-04-03T09:29:49.651Z,11.48
2019-04-03T09:31:03.056Z,12.23
2019-04-03T09:32:19.167Z,11.78
2019-04-03T09:33:32.905Z,11.28
2019-04-03T09:34:46.204Z,11.15
2019-04-03T09:35:59.968Z,10.35
2019-04-03T09:37:13.470Z,10.58
2019-04-03T09:38:27.075Z,10.43
2019-04-03T09:39:40.657Z,11.05
2019-04-03T09:40:53.948Z,11.50
2019-04-03T09:42:07.485Z,11.15
2019-04-03T09:43:22.263Z,12.23
2019-04-03T09:44:36.370Z,11.80
2019-04-03T09:45:49.701Z,10.45
2019-04-03T09:47:03.789Z,10.53
2019-04-03T09:48:17.427Z,10.30
2019-04-03T09:49:31.042Z,10.70
2019-04-03T09:50:46.369Z,10.60
2019-04-03T09:52:00.805Z,10.32
2019-04-03T09:53:14.080Z,10.20
2019-04-03T09:54:28.616Z,10.10
2019-04-03T09:55:42.420Z,11.18
2019-04-03T09:57:03.008Z,10.70
2019-04-03T09:58:11.454Z,10.40
2019-04-03T09:59:24.758Z,9.73
2019-04-03T10:00:38.057Z,10.60
2019-04-03T10:01:51.365Z,10.43
2019-04-03T10:03:05.888Z,9.98
2019-04-03T10:04:20.939Z,10.10
2019-04-03T10:05:35.024Z,10.05
2019-04-03T10:06:48.599Z,10.28
2019-04-03T10:08:01.964Z,9.93
2019-04-03T10:09:15.250Z,10.03
2019-04-03T10:10:28.594Z,10.05
2019-04-03T10:11:42.259Z,9.80
2019-04-03T10:12:55.510Z,9.20
2019-04-03T10:14:08.849Z,9.63
2019-04-03T10:15:22.242Z,10.08
2019-04-03T10:16:35.971Z,10.38
2019-04-03T10:17:49.754Z,9.13
2019-04-03T10:19:03.099Z,9.70
2019-04-03T10:20:17.229Z,9.48
2019-04-03T10:21:33.657Z,8.93
2019-04-03T10:22:47.404Z,8.98
2019-04-03T10:24:00.963Z,9.35
2019-04-03T10:25:14.324Z,9.00
2019-04-03T10:26:28.572Z,8.90
2019-04-03T10:27:43.651Z,8.63
2019-04-03T10:28:57.028Z,7.95
2019-04-03T10:30:12.359Z,8.33
2019-04-03T10:31:25.983Z,8.80
2019-04-03T10:32:39.316Z,9.18
2019-04-03T10:33:53.060Z,8.73
2019-04-03T10:35:08.097Z,8.85
2019-04-03T10:36:21.638Z,8.23
2019-04-03T10:37:34.980Z,7.35
2019-04-03T10:38:49.591Z,7.05
2019-04-03T10:40:04.729Z,6.67
2019-04-03T10:41:18.297Z,6.90
2019-04-03T10:42:32.755Z,7.00
2019-04-03T10:43:46.097Z,5.53
2019-04-03T10:45:00.434Z,6.47
2019-04-03T10:46:14.245Z,5.83
2019-04-03T10:47:40.476Z,5.85
2019-04-03T10:48:43.956Z,6.60
2019-04-03T10:49:57.452Z,6.65
2019-04-03T10:51:10.932Z,6.12
2019-04-03T10:52:24.259Z,7.28
2019-04-03T10:53:37.506Z,7.00
2019-04-03T10:54:50.797Z,7.28
2019-04-03T10:56:04.352Z,7.00
2019-04-03T10:57:17.676Z,6.20
2019-04-03T10:58:31.309Z,6.75
2019-04-03T10:59:50.138Z,7.40
2019-04-03T11:01:01.514Z,6.60
2019-04-03T11:02:14.787Z,6.08
2019-04-03T11:03:28.869Z,6.33
2019-04-03T11:04:42.132Z,6.33
2019-04-03T11:05:55.542Z,5.95
2019-04-03T11:07:09.148Z,6.15
2019-04-03T11:08:22.668Z,7.08
2019-04-03T11:09:37.929Z,7.10
2019-04-03T11:10:51.793Z,7.70
2019-04-03T11:12:05.139Z,7.50
2019-04-03T11:13:19.479Z,7.42
2019-04-03T11:14:33.523Z,7.65
2019-04-03T11:15:47.864Z,7.75
2019-04-03T11:17:01.220Z,7.62
2019-04-03T11:18:14.486Z,6.45
2019-04-03T11:19:27.740Z,7.65
2019-04-03T11:20:41.480Z,6.42
2019-04-03T11:21:56.442Z,6.10
2019-04-03T11:23:11.106Z,5.08
2019-04-03T11:24:24.678Z,5.30
2019-04-03T11:25:41.441Z,5.95
2019-04-03T11:26:53.198Z,6.03
2019-04-03T11:28:07.000Z,6.58
2019-04-03T11:29:20.720Z,5.17
2019-04-03T11:30:34.187Z,5.97
2019-04-03T11:31:47.663Z,6.12
2019-04-03T11:33:01.680Z,7.15
2019-04-03T11:34:17.144Z,6.53
2019-04-03T11:35:30.254Z,6.30
2019-04-03T11:36:43.875Z,6.37
2019-04-03T11:37:57.523Z,5.72
2019-04-03T11:39:14.974Z,5.85
2019-04-03T11:40:26.054Z,6.03
2019-04-03T11:41:39.382Z,5.62
2019-04-03T11:42:53.285Z,5.20
2019-04-03T11:44:07.033Z,5.80
2019-04-03T11:45:20.416Z,5.72
2019-04-03T11:46:33.717Z,5.10
2019-04-03T11:47:48.055Z,5.20
2019-04-03T11:49:01.472Z,5.85
2019-04-03T11:50:14.901Z,4.83
2019-04-03T11:51:29.632Z,5.08
2019-04-03T11:52:43.560Z,5.33
2019-04-03T11:53:57.037Z,3.70
2019-04-03T11:55:11.249Z,3.85
2019-04-03T11:56:25.178Z,4.28
2019-04-03T11:57:38.510Z,3.60
2019-04-03T11:58:52.442Z,3.47
2019-04-03T12:00:12.070Z,3.58
2019-04-03T12:01:25.343Z,3.62
2019-04-03T12:02:39.853Z,3.75
2019-04-03T12:03:53.692Z,3.75
2019-04-03T12:05:07.173Z,3.77
2019-04-03T12:06:21.230Z,3.72
2019-04-03T12:07:34.636Z,3.52
2019-04-03T12:08:48.092Z,3.40
2019-04-03T12:10:03.837Z,3.62
2019-04-03T12:11:16.497Z,3.67
2019-04-03T12:12:30.821Z,3.60
2019-04-03T12:13:45.605Z,3.30
2019-04-03T12:14:59.204Z,3.50
2019-04-03T12:16:12.762Z,3.30
2019-04-03T12:17:27.321Z,3.60
2019-04-03T12:18:41.706Z,3.12
2019-04-03T12:19:55.076Z,3.50
2019-04-03T12:21:10.456Z,3.45
2019-04-03T12:22:23.324Z,3.58
2019-04-03T12:23:39.293Z,3.52
2019-04-03T12:24:51.807Z,3.60
2019-04-03T12:26:05.140Z,3.47
2019-04-03T12:27:18.416Z,3.83
2019-04-03T12:28:31.960Z,4.10
2019-04-03T12:29:46.443Z,3.35
2019-04-03T12:31:04.464Z,4.22
2019-04-03T12:32:17.722Z,3.47
2019-04-03T12:33:31.554Z,3.65
2019-04-03T12:34:44.989Z,3.70
2019-04-03T12:35:58.548Z,3.35
2019-04-03T12:37:12.029Z,3.05
2019-04-03T12:38:25.601Z,3.02
2019-04-03T12:39:38.928Z,2.98
2019-04-03T12:40:52.808Z,2.87
2019-04-03T12:42:08.318Z,3.17
2019-04-03T12:43:21.112Z,2.83
2019-04-03T12:44:35.649Z,2.77
2019-04-03T12:45:49.035Z,2.60
2019-04-03T12:47:06.893Z,2.50
2019-04-03T12:48:19.597Z,2.60
2019-04-03T12:49:32.878Z,2.42
2019-04-03T12:50:46.131Z,2.58
2019-04-03T12:52:02.507Z,2.42
2019-04-03T12:53:16.461Z,2.60
2019-04-03T12:54:30.231Z,1.98
2019-04-03T12:55:43.755Z,2.92
2019-04-03T12:56:57.153Z,1.85
2019-04-03T12:58:12.693Z,1.80
2019-04-03T12:59:26.120Z,1.55
2019-04-03T13:00:39.467Z,1.95
2019-04-03T13:01:52.855Z,1.60
2019-04-03T13:03:06.128Z,1.80
2019-04-03T13:04:21.121Z,1.98
2019-04-03T13:05:37.367Z,1.98
2019-04-03T13:06:51.518Z,1.72
2019-04-03T13:08:05.520Z,1.50
2019-04-03T13:09:19.530Z,1.80
2019-04-03T13:10:41.456Z,1.85
2019-04-03T13:11:49.821Z,1.75
2019-04-03T13:13:02.853Z,1.52
2019-04-03T13:14:24.126Z,1.70
2019-04-03T13:15:32.843Z,1.60
2019-04-03T13:16:47.556Z,1.47
2019-04-03T13:18:02.004Z,1.52
2019-04-03T13:19:16.742Z,1.45
2019-04-03T13:20:30.336Z,1.70
2019-04-03T13:21:43.826Z,1.90
2019-04-03T13:22:58.402Z,1.60
2019-04-03T13:24:12.528Z,1.85
2019-04-03T13:25:26.410Z,1.62
2019-04-03T13:26:39.751Z,1.37
2019-04-03T13:27:53.105Z,1.42
2019-04-03T13:29:08.609Z,1.52
2019-04-03T13:30:22.382Z,1.50
2019-04-03T13:31:35.654Z,1.35
2019-04-03T13:32:58.301Z,1.70
2019-04-03T13:34:06.763Z,1.47
2019-04-03T13:35:22.655Z,1.60
2019-04-03T13:36:36.038Z,1.55
2019-04-03T13:37:55.881Z,1.55
2019-04-03T13:39:14.342Z,1.40
2019-04-03T13:40:27.689Z,1.60
2019-04-03T13:41:42.447Z,1.20
2019-04-03T13:42:56.139Z,1.52
2019-04-03T13:44:09.385Z,1.30
2019-04-03T13:45:22.626Z,1.60
2019-04-03T13:46:37.464Z,1.45
2019-04-03T13:47:51.099Z,1.30
2019-04-03T13:49:05.133Z,1.45
2019-04-03T13:50:18.529Z,1.40
2019-04-03T13:51:31.868Z,1.80
2019-04-03T13:52:48.406Z,1.50
2019-04-03T13:54:02.219Z,1.35
2019-04-03T13:55:15.937Z,1.52
2019-04-03T13:56:29.285Z,1.50
2019-04-03T13:57:42.710Z,1.55
2019-04-03T13:58:56.325Z,1.87
2019-04-03T14:00:20.238Z,1.65
2019-04-03T14:01:27.555Z,1.50
2019-04-03T14:02:44.945Z,1.30
2019-04-03T14:03:56.660Z,1.17
2019-04-03T14:05:11.939Z,1.35
2019-04-03T14:06:25.532Z,1.15
2019-04-03T14:07:41.585Z,1.47
2019-04-03T14:08:54.187Z,1.65
2019-04-03T14:10:09.037Z,1.60
2019-04-03T14:11:23.253Z,1.57
2019-04-03T14:12:38.053Z,1.30
2019-04-03T14:13:53.345Z,1.70
2019-04-03T14:15:07.527Z,1.30
2019-04-03T14:16:22.893Z,1.30
2019-04-03T14:17:36.266Z,1.40
2019-04-03T14:18:51.196Z,1.15
2019-04-03T14:20:06.220Z,1.30
2019-04-03T14:21:19.645Z,1.62
2019-04-03T14:22:38.765Z,2.40
2019-04-03T14:23:52.094Z,2.10
2019-04-03T14:25:17.932Z,1.50
2019-04-03T14:26:23.214Z,1.32
2019-04-03T14:27:36.490Z,1.47
2019-04-03T14:28:49.849Z,2.55
2019-04-03T14:30:10.234Z,1.20
2019-04-03T14:31:34.304Z,1.37
2019-04-03T14:32:40.091Z,1.47
2019-04-03T14:33:54.940Z,1.35
2019-04-03T14:35:34.155Z,1.42
2019-04-03T14:36:25.355Z,1.77
2019-04-03T14:37:38.787Z,1.50
2019-04-03T14:38:53.139Z,1.65
2019-04-03T14:40:07.095Z,1.22
2019-04-03T14:41:20.778Z,1.60
2019-04-03T14:42:36.429Z,1.47
2019-04-03T14:43:50.866Z,1.17
2019-04-03T14:45:07.224Z,1.52
2019-04-03T14:46:21.569Z,1.10
2019-04-03T14:47:37.579Z,1.60
2019-04-03T14:48:52.032Z,1.27
2019-04-03T14:50:07.111Z,1.62
2019-04-03T14:51:21.623Z,1.45
2019-04-03T14:52:37.264Z,1.70
2019-04-03T14:53:53.467Z,1.55
2019-04-03T14:55:18.212Z,1.67
2019-04-03T14:56:22.187Z,1.40
2019-04-03T14:57:35.903Z,1.50
2019-04-03T14:58:50.494Z,1.47
2019-04-03T15:00:23.950Z,1.12
2019-04-03T15:01:20.912Z,1.40
2019-04-03T15:02:34.848Z,1.50
2019-04-03T15:03:48.209Z,1.40
2019-04-03T15:05:02.302Z,1.30
2019-04-03T15:06:17.722Z,1.80
2019-04-03T15:07:31.082Z,1.80
2019-04-03T15:08:46.391Z,1.50
2019-04-03T15:10:00.433Z,1.42
2019-04-03T15:11:15.615Z,1.40
2019-04-03T15:12:29.128Z,1.55
2019-04-03T15:13:42.424Z,1.20
2019-04-03T15:14:56.042Z,1.60
2019-04-03T15:16:09.900Z,1.50
2019-04-03T15:17:23.846Z,1.40
2019-04-03T15:18:37.392Z,1.50
2019-04-03T15:19:50.686Z,1.30
2019-04-03T15:21:07.021Z,1.40
2019-04-03T15:22:20.568Z,1.47
2019-04-03T15:23:39.992Z,1.50
2019-04-03T15:24:49.421Z,1.12
2019-04-03T15:26:02.732Z,1.77
2019-04-03T15:27:19.120Z,3.15
2019-04-03T15:28:33.035Z,1.90
2019-04-03T15:29:46.365Z,2.02
2019-04-03T15:30:59.666Z,1.65
2019-04-03T15:32:13.122Z,1.55
2019-04-03T15:33:26.511Z,1.60
2019-04-03T15:34:40.245Z,1.57
2019-04-03T15:35:54.106Z,1.32
2019-04-03T15:37:09.312Z,1.50
2019-04-03T15:38:23.214Z,1.57
2019-04-03T15:39:39.038Z,1.40
2019-04-03T15:40:52.349Z,1.37
2019-04-03T15:42:06.674Z,1.50
2019-04-03T15:43:21.274Z,1.55
2019-04-03T15:44:35.172Z,1.32
2019-04-03T15:45:49.305Z,1.42
2019-04-03T15:47:02.977Z,1.90
2019-04-03T15:48:17.082Z,1.72
2019-04-03T15:49:30.740Z,1.37
2019-04-03T15:50:47.673Z,1.70
2019-04-03T15:52:01.581Z,1.50
2019-04-03T15:53:15.180Z,1.72
2019-04-03T15:54:31.505Z,1.42
2019-04-03T15:55:44.741Z,1.37
2019-04-03T15:57:04.315Z,1.52
2019-04-03T15:58:17.721Z,1.70
2019-04-03T15:59:32.041Z,1.40
2019-04-03T16:00:48.281Z,1.90
2019-04-03T16:02:01.989Z,1.50
2019-04-03T16:03:17.553Z,1.20
2019-04-03T16:04:30.275Z,1.27
2019-04-03T16:05:43.604Z,1.50
2019-04-03T16:06:56.997Z,2.50
2019-04-03T16:08:12.808Z,1.50
2019-04-03T16:09:25.598Z,2.30
2019-04-03T16:10:39.411Z,1.70
2019-04-03T16:11:52.714Z,1.80
2019-04-03T16:13:06.878Z,2.00
2019-04-03T16:14:23.546Z,2.92
2019-04-03T16:15:36.982Z,2.42
2019-04-03T16:16:50.253Z,1.90
2019-04-03T16:18:06.300Z,1.62